createdAt,value
2022-10-11T00:00:33.206Z,13.07
2022-10-11T00:05:55.069Z,14.35
2022-10-11T00:11:16.782Z,11.48
2022-10-11T00:16:40.916Z,21.73
2022-10-11T00:22:02.694Z,14.35
2022-10-11T00:27:24.787Z,13.88
2022-10-11T00:32:46.570Z,14.93
2022-10-11T00:38:08.298Z,20.08
2022-10-11T00:43:31.320Z,12.23
2022-10-11T00:49:41.003Z,13.40
2022-10-11T00:55:12.622Z,9.13
2022-10-11T01:00:34.460Z,11.50
2022-10-11T01:05:56.796Z,17.48
2022-10-11T01:11:23.435Z,15.80
2022-10-11T01:17:00.040Z,12.02
2022-10-11T01:22:40.558Z,17.15
2022-10-11T01:28:16.371Z,13.32
2022-10-11T01:33:51.845Z,12.50
2022-10-11T01:39:21.936Z,11.45
2022-10-11T01:44:47.420Z,19.00
2022-10-11T01:50:46.371Z,15.32
2022-10-11T01:56:39.714Z,17.40
2022-10-11T02:02:19.452Z,14.75
2022-10-11T02:08:14.932Z,15.35
2022-10-11T02:14:01.669Z,13.10
2022-10-11T02:19:30.151Z,12.35
2022-10-11T02:24:57.718Z,14.13
2022-10-11T02:30:19.505Z,14.50
2022-10-11T02:35:46.719Z,21.70
2022-10-11T02:41:32.449Z,12.60
2022-10-11T02:46:54.817Z,15.63
2022-10-11T02:52:16.518Z,15.57
2022-10-11T02:57:38.215Z,17.80
2022-10-11T03:02:59.917Z,21.00
2022-10-11T03:08:21.647Z,21.33
2022-10-11T03:13:43.381Z,19.25
2022-10-11T03:19:05.076Z,22.50
2022-10-11T03:24:26.840Z,27.92
2022-10-11T03:29:48.553Z,30.40
2022-10-11T03:35:10.264Z,29.58
2022-10-11T03:40:32.139Z,27.25
2022-10-11T03:45:53.882Z,28.40
2022-10-11T03:51:15.744Z,26.45
2022-10-11T03:56:37.602Z,28.65
2022-10-11T04:01:59.400Z,33.35
2022-10-11T04:07:21.138Z,31.85
2022-10-11T04:12:43.099Z,40.55
2022-10-11T04:18:06.379Z,35.85
2022-10-11T04:23:28.119Z,33.28
2022-10-11T04:28:49.916Z,30.58
2022-10-11T04:34:11.816Z,35.92
2022-10-11T04:39:33.495Z,37.15
2022-10-11T04:44:55.187Z,36.67
2022-10-11T04:50:17.003Z,41.75
2022-10-11T04:55:38.700Z,37.03
2022-10-11T05:01:00.660Z,34.85
2022-10-11T05:06:22.352Z,38.10
2022-10-11T05:11:44.042Z,38.38
2022-10-11T05:17:05.787Z,42.25
2022-10-11T05:22:27.500Z,34.88
2022-10-11T05:27:49.178Z,38.22
2022-10-11T05:33:11.821Z,31.83
2022-10-11T05:38:33.850Z,34.83
2022-10-11T05:43:55.598Z,33.08
2022-10-11T05:49:17.355Z,34.97
2022-10-11T05:54:39.143Z,36.50
2022-10-11T06:00:00.831Z,33.92
2022-10-11T06:05:22.543Z,38.08
2022-10-11T06:10:44.764Z,39.45
2022-10-11T06:16:07.548Z,39.90
2022-10-11T06:21:29.706Z,30.00
2022-10-11T06:26:51.821Z,30.38
2022-10-11T06:32:13.597Z,28.50
2022-10-11T06:37:35.325Z,31.75
2022-10-11T06:42:57.037Z,38.80
2022-10-11T06:48:18.733Z,33.15
2022-10-11T06:53:41.527Z,33.60
2022-10-11T06:59:21.276Z,26.30
2022-10-11T07:04:43.016Z,25.25
2022-10-11T07:10:05.105Z,31.42
2022-10-11T07:15:26.880Z,33.80
2022-10-11T07:20:48.826Z,30.65
2022-10-11T07:26:11.034Z,40.08
2022-10-11T07:31:32.885Z,25.65
2022-10-11T07:36:54.580Z,31.75
2022-10-11T07:42:16.299Z,33.35
2022-10-11T07:47:38.105Z,30.92
2022-10-11T07:52:59.903Z,31.33
2022-10-11T07:58:21.588Z,28.65
2022-10-11T08:03:43.314Z,34.10
2022-10-11T08:09:06.200Z,27.48
2022-10-11T08:14:27.989Z,24.55
2022-10-11T08:19:49.845Z,35.08
2022-10-11T08:25:11.536Z,35.67
2022-10-11T08:30:34.035Z,29.80
2022-10-11T08:35:57.196Z,34.78
2022-10-11T08:41:31.687Z,34.10
2022-10-11T08:47:01.762Z,28.52
2022-10-11T08:52:28.196Z,33.20
2022-10-11T08:57:54.971Z,27.38
2022-10-11T09:03:35.493Z,39.13
2022-10-11T09:09:15.655Z,35.92
2022-10-11T09:14:52.076Z,39.50
2022-10-11T09:20:31.092Z,32.65
2022-10-11T09:26:20.070Z,35.90
2022-10-11T09:31:47.437Z,35.25
2022-10-11T09:37:22.570Z,33.35
2022-10-11T09:42:44.285Z,33.42
2022-10-11T09:48:07.341Z,39.55
2022-10-11T09:54:01.532Z,37.17
2022-10-11T09:59:35.042Z,36.00
2022-10-11T10:05:09.017Z,42.03
2022-10-11T10:10:34.077Z,39.13
2022-10-11T10:16:00.805Z,35.80
2022-10-11T10:21:27.720Z,35.53
2022-10-11T10:27:29.636Z,35.55
2022-10-11T10:32:51.499Z,32.03
2022-10-11T10:38:26.879Z,37.15
2022-10-11T10:43:53.562Z,38.83
2022-10-11T10:49:53.078Z,29.42
2022-10-11T10:55:43.099Z,33.08
2022-10-11T11:01:20.831Z,31.20
2022-10-11T11:06:53.626Z,31.17
2022-10-11T11:12:36.567Z,29.02
2022-10-11T11:18:13.551Z,28.88
2022-10-11T11:24:04.044Z,34.20
2022-10-11T11:29:55.361Z,27.58
2022-10-11T11:35:37.684Z,31.73
2022-10-11T11:41:06.095Z,26.42
2022-10-11T11:46:38.190Z,24.52
2022-10-11T11:52:00.493Z,27.98
2022-10-11T11:57:34.900Z,29.98
2022-10-11T12:03:11.277Z,23.08
2022-10-11T12:08:34.916Z,22.27
2022-10-11T12:13:57.656Z,24.73
2022-10-11T12:19:20.183Z,26.23
2022-10-11T12:25:00.296Z,25.60
2022-10-11T12:30:52.369Z,20.75
2022-10-11T12:36:31.836Z,28.40
2022-10-11T12:42:07.233Z,20.17
2022-10-11T12:47:37.173Z,25.38
2022-10-11T12:53:27.843Z,21.13
2022-10-11T12:58:49.910Z,23.92
2022-10-11T13:04:12.361Z,22.27
2022-10-11T13:09:39.241Z,19.77
2022-10-11T13:15:08.433Z,16.98
2022-10-11T13:20:36.263Z,18.38
2022-10-11T13:26:01.928Z,19.95
2022-10-11T13:31:25.216Z,17.70
2022-10-11T13:36:46.917Z,19.98
2022-10-11T13:42:14.126Z,20.58
2022-10-11T13:47:35.893Z,19.70
2022-10-11T13:53:00.447Z,16.77
2022-10-11T13:58:32.115Z,22.08
2022-10-11T14:03:58.990Z,15.38
2022-10-11T14:09:26.359Z,18.08
2022-10-11T14:14:51.604Z,16.60
2022-10-11T14:20:30.854Z,20.17
2022-10-11T14:25:54.762Z,18.92
2022-10-11T14:31:16.521Z,17.98
2022-10-11T14:36:38.280Z,15.77
2022-10-11T14:42:00.188Z,19.17
2022-10-11T14:47:21.910Z,15.27
2022-10-11T14:52:43.949Z,18.65
2022-10-11T14:58:06.999Z,16.95
2022-10-11T15:03:28.702Z,17.60
2022-10-11T15:08:50.516Z,22.63
2022-10-11T15:14:12.376Z,23.88
2022-10-11T15:19:34.163Z,22.45
2022-10-11T15:24:56.046Z,20.83
2022-10-11T15:30:24.316Z,22.48
2022-10-11T15:35:46.008Z,25.23
2022-10-11T15:41:10.146Z,15.77
2022-10-11T15:46:31.838Z,24.02
2022-10-11T15:51:53.618Z,21.85
2022-10-11T15:57:15.329Z,18.52
2022-10-11T16:02:37.068Z,19.73
2022-10-11T16:07:58.978Z,21.02
2022-10-11T16:13:21.196Z,25.80
2022-10-11T16:18:42.942Z,24.85
2022-10-11T16:24:04.805Z,22.77
2022-10-11T16:29:26.651Z,27.15
2022-10-11T16:34:48.468Z,19.38
2022-10-11T16:40:11.906Z,18.92
2022-10-11T16:45:34.219Z,20.10
2022-10-11T16:51:05.041Z,18.92
2022-10-11T16:56:27.568Z,18.83
2022-10-11T17:01:49.495Z,18.02
2022-10-11T17:07:13.012Z,16.23
2022-10-11T17:12:37.153Z,20.08
2022-10-11T17:17:58.914Z,18.77
2022-10-11T17:23:20.596Z,22.20
2022-10-11T17:28:42.383Z,19.42
2022-10-11T17:34:04.187Z,27.05
2022-10-11T17:39:25.949Z,21.15
2022-10-11T17:44:47.672Z,22.73
2022-10-11T17:50:09.622Z,32.88
2022-10-11T17:55:31.326Z,17.40
2022-10-11T18:00:53.140Z,23.83
2022-10-11T18:06:14.909Z,20.30
2022-10-11T18:11:36.787Z,19.67
2022-10-11T18:16:58.509Z,20.20
2022-10-11T18:22:20.839Z,16.00
2022-10-11T18:27:42.644Z,21.55
2022-10-11T18:33:04.497Z,19.77
2022-10-11T18:38:26.212Z,21.92
2022-10-11T18:43:55.772Z,26.55
2022-10-11T18:49:17.636Z,18.13
2022-10-11T18:54:39.465Z,30.00
2022-10-11T19:00:07.275Z,21.38
2022-10-11T19:05:33.665Z,21.83
2022-10-11T19:10:55.550Z,20.30
2022-10-11T19:16:18.000Z,20.48
2022-10-11T19:21:39.875Z,27.50
2022-10-11T19:27:03.057Z,25.17
2022-10-11T19:32:24.949Z,29.35
2022-10-11T19:37:46.701Z,23.38
2022-10-11T19:43:08.441Z,24.38
2022-10-11T19:48:31.108Z,25.85
2022-10-11T19:54:00.130Z,27.90
2022-10-11T19:59:21.977Z,23.30
2022-10-11T20:04:52.817Z,22.55
2022-10-11T20:10:15.059Z,20.42
2022-10-11T20:15:40.090Z,23.05
2022-10-11T20:21:05.894Z,28.02
2022-10-11T20:26:29.425Z,27.30
2022-10-11T20:31:51.318Z,20.67
2022-10-11T20:37:13.026Z,23.70
2022-10-11T20:42:34.869Z,27.42
2022-10-11T20:47:56.614Z,22.10
2022-10-11T20:53:18.740Z,26.02
2022-10-11T20:58:40.924Z,26.90
2022-10-11T21:04:03.522Z,24.35
2022-10-11T21:09:25.323Z,22.63
2022-10-11T21:14:47.081Z,21.92
2022-10-11T21:20:09.301Z,23.98
2022-10-11T21:25:33.258Z,23.55
2022-10-11T21:30:55.255Z,23.90
2022-10-11T21:36:19.976Z,21.67
2022-10-11T21:41:42.318Z,24.23
2022-10-11T21:47:07.420Z,26.83
2022-10-11T21:52:30.883Z,22.38
2022-10-11T21:57:52.626Z,22.33
2022-10-11T22:03:14.414Z,21.40
2022-10-11T22:08:36.544Z,22.80
2022-10-11T22:13:58.652Z,26.40
2022-10-11T22:19:20.472Z,23.50
2022-10-11T22:24:42.152Z,19.88
2022-10-11T22:30:04.197Z,22.92
2022-10-11T22:35:25.871Z,21.45
2022-10-11T22:40:48.221Z,23.17
2022-10-11T22:46:10.357Z,25.13
2022-10-11T22:51:32.154Z,23.17
2022-10-11T22:56:53.847Z,23.75
2022-10-11T23:02:15.569Z,21.40
2022-10-11T23:07:37.629Z,20.73
2022-10-11T23:12:59.623Z,21.40
2022-10-11T23:18:21.286Z,22.35
2022-10-11T23:23:42.979Z,23.02
2022-10-11T23:29:04.676Z,22.45
2022-10-11T23:34:26.380Z,22.42
2022-10-11T23:39:48.083Z,18.95
2022-10-11T23:45:10.161Z,26.90
2022-10-11T23:50:31.844Z,24.35
2022-10-11T23:55:53.697Z,21.27
